Time;durP1;ratioP1;P1;durP2;ratioP2;P2;SDS_P1;SDS_P2;PMS_P1;PMS_P2;Temp;Humidity;BMP_temperature;BMP_pressure;BME280_temperature;BME280_humidity;BME280_pressure;Samples;Min_cycle;Max_cycle;Signal;HPM_P1;HPM_P2
2021/08/02 00:02:23;;;;;;;0.50;0.30;;;15.40;99.90;;;;;;5037601;28;20426;-84
2021/08/02 00:04:56;;;;;;;0.50;0.30;;;15.40;99.90;;;;;;5037780;28;20462;-85
2021/08/02 00:07:25;;;;;;;0.50;0.30;;;15.40;99.90;;;;;;5037503;28;20461;-82
2021/08/02 00:09:55;;;;;;;0.50;0.30;;;15.40;99.90;;;;;;5036865;28;20468;-83
2021/08/02 00:12:27;;;;;;;0.50;0.40;;;15.30;99.90;;;;;;5037089;28;20456;-82
2021/08/02 00:14:57;;;;;;;0.50;0.30;;;15.30;99.90;;;;;;5037128;28;20434;-84
2021/08/02 00:17:26;;;;;;;0.50;0.30;;;15.30;99.90;;;;;;5036656;28;20458;-83
2021/08/02 00:19:53;;;;;;;0.50;0.40;;;15.20;99.90;;;;;;5036586;28;20455;-83
2021/08/02 00:22:21;;;;;;;0.50;0.30;;;15.20;99.90;;;;;;5036769;28;20446;-82
2021/08/02 00:24:49;;;;;;;0.50;0.30;;;15.20;99.90;;;;;;5036307;28;20469;-84
2021/08/02 00:27:18;;;;;;;0.50;0.30;;;15.10;99.90;;;;;;5036634;28;20446;-82
2021/08/02 00:29:45;;;;;;;0.50;0.50;;;15.10;99.90;;;;;;5037197;28;20455;-83
2021/08/02 00:32:13;;;;;;;0.50;0.30;;;15.10;99.90;;;;;;5036037;28;20442;-83
2021/08/02 00:34:42;;;;;;;0.50;0.30;;;15.10;99.90;;;;;;5036634;28;20442;-83
2021/08/02 00:37:17;;;;;;;0.50;0.30;;;15.00;99.90;;;;;;5036825;28;20449;-84
2021/08/02 00:39:49;;;;;;;0.50;0.30;;;14.90;99.90;;;;;;5036177;28;20435;-82
2021/08/02 00:42:45;;;;;;;0.50;0.30;;;14.80;99.90;;;;;;5035648;28;20441;-83
2021/08/02 00:45:14;;;;;;;0.50;0.30;;;14.80;99.90;;;;;;5036364;28;20222;-83
2021/08/02 00:47:47;;;;;;;0.50;0.40;;;14.70;99.90;;;;;;5035964;28;20947;-83
2021/08/02 00:50:18;;;;;;;0.50;0.30;;;14.60;99.90;;;;;;5036056;28;20780;-84
2021/08/02 00:52:50;;;;;;;0.50;0.40;;;14.50;99.90;;;;;;5035719;28;20474;-84
2021/08/02 00:55:18;;;;;;;0.50;0.30;;;14.40;99.90;;;;;;5036116;28;20419;-84
2021/08/02 00:57:47;;;;;;;0.50;0.40;;;14.40;99.90;;;;;;5036899;28;20207;-83
2021/08/02 01:00:16;;;;;;;0.50;0.40;;;14.30;99.90;;;;;;5036226;28;20451;-83
2021/08/02 01:02:45;;;;;;;0.50;0.40;;;14.20;99.90;;;;;;5035825;28;20222;-83
2021/08/02 01:05:12;;;;;;;0.50;0.37;;;14.10;99.90;;;;;;5035206;28;20511;-82
2021/08/02 01:07:46;;;;;;;0.50;0.40;;;14.10;99.90;;;;;;5035636;28;20459;-83
2021/08/02 01:10:15;;;;;;;0.50;0.32;;;14.10;99.90;;;;;;5035997;28;20441;-82
2021/08/02 01:12:46;;;;;;;0.50;0.40;;;14.10;99.90;;;;;;5036020;28;20332;-82
2021/08/02 01:15:14;;;;;;;0.50;0.30;;;14.00;99.90;;;;;;5036254;28;20425;-83
2021/08/02 01:17:42;;;;;;;0.50;0.40;;;14.00;99.90;;;;;;5035402;28;20449;-83
2021/08/02 01:20:12;;;;;;;0.50;0.30;;;14.00;99.90;;;;;;5035165;28;20452;-81
2021/08/02 01:22:42;;;;;;;0.50;0.33;;;14.00;99.90;;;;;;5035529;28;20213;-82
2021/08/02 01:25:57;;;;;;;5.30;0.80;;;14.00;99.90;;;;;;5035128;28;20476;-83
2021/08/02 01:29:15;;;;;;;0.50;0.40;;;14.10;99.90;;;;;;5036082;28;20422;-81
2021/08/02 01:31:42;;;;;;;0.50;0.30;;;14.10;99.90;;;;;;4973896;28;20438;-83
2021/08/02 01:34:09;;;;;;;0.50;0.33;;;14.10;99.90;;;;;;4974957;28;21188;-82
2021/08/02 01:36:36;;;;;;;0.50;0.30;;;14.00;99.90;;;;;;5008962;28;20951;-84
2021/08/02 01:39:04;;;;;;;0.50;0.30;;;13.90;99.90;;;;;;5035652;28;20437;-83
2021/08/02 01:41:31;;;;;;;0.50;0.40;;;14.00;99.90;;;;;;5034751;28;20453;-83
2021/08/02 01:43:58;;;;;;;0.50;0.30;;;14.00;99.90;;;;;;5034907;28;20565;-83
2021/08/02 01:46:39;;;;;;;0.50;0.30;;;14.00;99.90;;;;;;5035120;28;20440;-83
2021/08/02 01:49:15;;;;;;;0.50;0.40;;;13.90;99.90;;;;;;5034667;28;20218;-83
2021/08/02 01:51:46;;;;;;;0.50;0.40;;;13.90;99.90;;;;;;5035027;28;20454;-84
2021/08/02 01:54:28;;;;;;;0.50;0.30;;;13.90;99.90;;;;;;5035113;28;20216;-81
2021/08/02 01:57:02;;;;;;;0.50;0.30;;;13.90;99.90;;;;;;5035177;28;20199;-83
2021/08/02 01:59:33;;;;;;;0.50;0.40;;;13.90;99.90;;;;;;5034815;28;20814;-83
2021/08/02 02:02:04;;;;;;;0.50;0.30;;;13.80;99.90;;;;;;5034155;28;20528;-83
2021/08/02 02:04:33;;;;;;;0.50;0.40;;;13.90;99.90;;;;;;5034977;28;20224;-83
2021/08/02 02:07:02;;;;;;;0.50;0.30;;;13.90;99.90;;;;;;5034729;28;20197;-81
2021/08/02 02:09:35;;;;;;;0.50;0.35;;;13.90;99.90;;;;;;5034743;28;20196;-84
2021/08/02 02:12:04;;;;;;;0.50;0.30;;;13.90;99.90;;;;;;5036625;28;20193;-82
2021/08/02 02:14:33;;;;;;;0.50;0.40;;;13.90;99.90;;;;;;5034880;28;20214;-83
2021/08/02 02:17:03;;;;;;;0.50;0.30;;;14.00;99.90;;;;;;5035112;28;20581;-82
2021/08/02 02:19:33;;;;;;;0.50;0.30;;;14.00;99.90;;;;;;5034411;28;20450;-82
2021/08/02 02:22:01;;;;;;;0.50;0.30;;;14.00;99.90;;;;;;5034004;28;20287;-82
2021/08/02 02:24:30;;;;;;;0.50;0.30;;;14.00;99.90;;;;;;5033833;28;20492;-82
2021/08/02 02:26:58;;;;;;;0.50;0.37;;;14.00;99.90;;;;;;5034475;28;20453;-83
2021/08/02 02:29:27;;;;;;;0.50;0.30;;;14.10;99.90;;;;;;5034257;28;20449;-82
2021/08/02 02:31:54;;;;;;;0.50;0.30;;;14.10;99.90;;;;;;5034464;28;20203;-82
2021/08/02 02:34:22;;;;;;;0.50;0.30;;;14.10;99.90;;;;;;5034321;28;20208;-82
2021/08/02 02:36:50;;;;;;;0.50;0.40;;;14.20;99.90;;;;;;5034213;28;20438;-82
2021/08/02 02:39:18;;;;;;;0.50;0.30;;;14.20;99.90;;;;;;5034719;28;20963;-82
2021/08/02 02:41:47;;;;;;;0.50;0.30;;;14.20;99.90;;;;;;5033634;28;20442;-83
2021/08/02 02:44:15;;;;;;;0.50;0.30;;;14.20;99.90;;;;;;5033971;28;20228;-80
2021/08/02 02:46:43;;;;;;;0.50;0.30;;;14.30;99.90;;;;;;5034605;28;20928;-82
2021/08/02 02:49:10;;;;;;;0.50;0.30;;;14.30;99.90;;;;;;5034306;28;20439;-83
2021/08/02 02:51:38;;;;;;;0.50;0.30;;;14.30;99.90;;;;;;5033845;28;20195;-83
2021/08/02 02:54:05;;;;;;;0.50;0.32;;;14.30;99.90;;;;;;5034408;28;20697;-84
2021/08/02 02:56:34;;;;;;;0.50;0.30;;;14.30;99.90;;;;;;5034010;28;20202;-82
2021/08/02 02:59:03;;;;;;;0.50;0.40;;;14.30;99.90;;;;;;5034029;28;20534;-82
2021/08/02 03:01:36;;;;;;;0.50;0.30;;;14.30;99.90;;;;;;5034078;28;20451;-83
2021/08/02 03:04:03;;;;;;;0.50;0.40;;;14.30;99.90;;;;;;5034656;28;20468;-82
2021/08/02 03:06:31;;;;;;;0.50;0.30;;;14.30;99.90;;;;;;5034407;28;20202;-83
2021/08/02 03:08:58;;;;;;;0.50;0.30;;;14.30;99.90;;;;;;5034319;28;20209;-82
2021/08/02 03:11:25;;;;;;;0.50;0.30;;;14.30;99.90;;;;;;5033523;28;20453;-79
2021/08/02 03:13:52;;;;;;;0.50;0.30;;;14.20;99.90;;;;;;5035504;28;20222;-83
2021/08/02 03:16:23;;;;;;;0.50;0.30;;;14.20;99.90;;;;;;5038200;28;20196;-81
2021/08/02 03:18:50;;;;;;;0.50;0.40;;;14.10;99.90;;;;;;5037599;28;20506;-83
2021/08/02 03:21:18;;;;;;;0.50;0.40;;;14.20;99.90;;;;;;5037883;28;20197;-81
2021/08/02 03:23:52;;;;;;;0.50;0.30;;;14.10;99.90;;;;;;5037501;28;20215;-82
2021/08/02 03:26:25;;;;;;;0.50;0.30;;;14.10;99.90;;;;;;5038551;28;20467;-83
2021/08/02 03:28:56;;;;;;;0.50;0.30;;;14.20;99.90;;;;;;5038344;28;20634;-83
2021/08/02 03:31:31;;;;;;;0.50;0.30;;;14.20;99.90;;;;;;5038717;28;20420;-82
2021/08/02 03:33:59;;;;;;;0.50;0.30;;;14.10;99.90;;;;;;5037876;28;20470;-84
2021/08/02 03:36:27;;;;;;;0.50;0.30;;;14.10;99.90;;;;;;5037957;28;20446;-83
2021/08/02 03:38:56;;;;;;;0.50;0.30;;;14.10;99.90;;;;;;5037977;28;20193;-83
2021/08/02 03:41:23;;;;;;;0.50;0.30;;;14.10;99.90;;;;;;5037255;28;20447;-82
2021/08/02 03:43:50;;;;;;;0.50;0.30;;;14.10;99.90;;;;;;5036451;28;20461;-83
2021/08/02 03:46:20;;;;;;;0.50;0.30;;;14.10;99.90;;;;;;5037492;28;20215;-83
2021/08/02 03:48:48;;;;;;;0.50;0.30;;;14.10;99.90;;;;;;5037589;28;20451;-82
2021/08/02 03:51:15;;;;;;;0.50;0.30;;;14.10;99.90;;;;;;5036369;28;20439;-82
2021/08/02 03:53:43;;;;;;;0.50;0.30;;;14.10;99.90;;;;;;5036080;28;20475;-82
2021/08/02 03:56:10;;;;;;;0.50;0.30;;;14.10;99.90;;;;;;5036162;28;20436;-82
2021/08/02 03:58:38;;;;;;;0.50;0.40;;;14.10;99.90;;;;;;5036124;28;20450;-82
2021/08/02 04:01:05;;;;;;;0.50;0.30;;;14.10;99.90;;;;;;5035579;28;20451;-82
2021/08/02 04:03:32;;;;;;;0.50;0.30;;;14.20;99.90;;;;;;5035989;28;20832;-82
2021/08/02 04:06:01;;;;;;;0.50;0.40;;;14.20;99.90;;;;;;5035197;28;20708;-82
2021/08/02 04:08:28;;;;;;;0.50;0.30;;;14.20;99.90;;;;;;5035712;28;20461;-83
2021/08/02 04:10:56;;;;;;;0.50;0.30;;;14.20;99.90;;;;;;5035439;28;20444;-82
2021/08/02 04:13:23;;;;;;;0.93;0.93;;;14.30;99.90;;;;;;5035908;28;20459;-83
2021/08/02 04:15:50;;;;;;;0.97;0.97;;;14.30;99.90;;;;;;5035490;28;20454;-82
2021/08/02 04:18:16;;;;;;;0.50;0.30;;;14.30;99.90;;;;;;5035437;28;20812;-82
2021/08/02 04:20:43;;;;;;;0.50;0.30;;;14.20;99.90;;;;;;5035022;28;20440;-81
2021/08/02 04:23:12;;;;;;;0.50;0.30;;;14.30;99.90;;;;;;5035303;28;20602;-81
2021/08/02 04:25:40;;;;;;;0.50;0.30;;;14.30;99.90;;;;;;5034398;28;20522;-82
2021/08/02 04:28:06;;;;;;;0.50;0.40;;;14.30;99.90;;;;;;5035008;28;21012;-82
2021/08/02 04:30:33;;;;;;;0.50;0.30;;;14.30;99.90;;;;;;5035211;28;20447;-83
2021/08/02 04:33:00;;;;;;;0.50;0.30;;;14.30;99.90;;;;;;5035373;28;20465;-82
2021/08/02 04:35:27;;;;;;;0.50;0.30;;;14.30;99.90;;;;;;5035240;28;20444;-82
2021/08/02 04:37:53;;;;;;;0.50;0.30;;;14.30;99.90;;;;;;5035492;28;20446;-82
2021/08/02 04:40:22;;;;;;;0.50;0.30;;;14.30;99.90;;;;;;5035818;28;21023;-84
2021/08/02 04:42:48;;;;;;;0.50;0.30;;;14.30;99.90;;;;;;5035265;28;20464;-83
2021/08/02 04:45:15;;;;;;;0.50;0.30;;;14.30;99.90;;;;;;5035930;28;21002;-84
2021/08/02 04:47:42;;;;;;;0.50;0.30;;;14.40;99.90;;;;;;5035670;28;20444;-83
2021/08/02 04:50:10;;;;;;;0.50;0.30;;;14.30;99.90;;;;;;5035426;28;20204;-83
2021/08/02 04:52:36;;;;;;;0.50;0.30;;;14.40;99.90;;;;;;5035653;28;20460;-83
2021/08/02 04:55:04;;;;;;;0.50;0.40;;;14.40;99.90;;;;;;5035744;28;20433;-81
2021/08/02 04:57:32;;;;;;;0.50;0.30;;;14.40;99.90;;;;;;5035310;28;20447;-82
2021/08/02 04:59:59;;;;;;;0.50;0.30;;;14.40;99.90;;;;;;5034816;28;20451;-81
2021/08/02 05:02:26;;;;;;;0.50;0.30;;;14.40;99.90;;;;;;5034588;28;20451;-82
2021/08/02 05:04:53;;;;;;;0.50;0.30;;;14.50;99.90;;;;;;5034504;28;20944;-81
2021/08/02 05:07:19;;;;;;;0.50;0.30;;;14.40;99.90;;;;;;5034939;28;20450;-79
2021/08/02 05:09:46;;;;;;;32.20;17.77;;;14.50;99.90;;;;;;5035242;28;20438;-82
2021/08/02 05:12:13;;;;;;;0.50;0.40;;;14.50;99.90;;;;;;5034940;28;20441;-80
2021/08/02 05:14:41;;;;;;;0.50;0.40;;;14.50;99.90;;;;;;5034726;28;20959;-83
2021/08/02 05:17:08;;;;;;;0.50;0.30;;;14.50;99.90;;;;;;5034851;28;20505;-83
2021/08/02 05:19:35;;;;;;;0.50;0.37;;;14.60;99.90;;;;;;5030642;28;20457;-83
2021/08/02 05:22:02;;;;;;;0.50;0.30;;;14.60;99.90;;;;;;5029182;28;20451;-82
2021/08/02 05:24:38;;;;;;;0.50;0.40;;;14.60;99.90;;;;;;5028479;28;20454;-84
2021/08/02 05:27:05;;;;;;;0.50;0.30;;;14.60;99.90;;;;;;5036360;28;20832;-84
2021/08/02 05:29:32;;;;;;;0.50;0.30;;;14.70;99.90;;;;;;5036471;28;20470;-84
2021/08/02 05:32:02;;;;;;;0.50;0.30;;;14.70;99.90;;;;;;5035543;28;20456;-82
2021/08/02 05:34:29;;;;;;;0.50;0.30;;;14.80;99.90;;;;;;5037522;28;20462;-84
2021/08/02 05:36:55;;;;;;;0.50;0.30;;;14.70;99.90;;;;;;5035535;28;20438;-83
2021/08/02 05:39:22;;;;;;;0.50;0.30;;;14.80;99.90;;;;;;5036389;28;20818;-83
2021/08/02 05:41:49;;;;;;;0.50;0.30;;;14.80;99.90;;;;;;5035770;28;20439;-85
2021/08/02 05:44:15;;;;;;;0.50;0.30;;;14.80;99.90;;;;;;5035044;28;21022;-81
2021/08/02 05:46:43;;;;;;;0.50;0.30;;;14.90;99.90;;;;;;5036501;28;20815;-82
2021/08/02 05:49:11;;;;;;;0.60;0.60;;;15.00;99.90;;;;;;5037351;28;20481;-84
2021/08/02 05:51:38;;;;;;;0.50;0.30;;;15.00;99.90;;;;;;5036331;28;20938;-84
2021/08/02 05:54:05;;;;;;;0.77;0.77;;;15.10;99.90;;;;;;5035607;28;21074;-85
2021/08/02 05:56:31;;;;;;;0.50;0.30;;;15.10;99.90;;;;;;5036495;28;20435;-85
2021/08/02 05:58:58;;;;;;;0.50;0.30;;;15.30;99.90;;;;;;5035932;28;20443;-85
2021/08/02 06:01:32;;;;;;;0.50;0.30;;;15.40;99.90;;;;;;5032574;28;20459;-84
2021/08/02 06:03:59;;;;;;;0.50;0.30;;;15.50;99.90;;;;;;5033337;28;20458;-84
2021/08/02 06:06:27;;;;;;;0.50;0.30;;;15.50;99.90;;;;;;5036068;28;20482;-84
2021/08/02 06:08:54;;;;;;;0.50;0.30;;;15.50;99.90;;;;;;5035204;28;20449;-82
2021/08/02 06:11:21;;;;;;;0.50;0.47;;;15.40;99.90;;;;;;5036629;28;20502;-82
2021/08/02 06:13:48;;;;;;;0.50;0.40;;;15.40;99.90;;;;;;5037687;28;20464;-83
2021/08/02 06:16:20;;;;;;;0.50;0.30;;;15.50;99.90;;;;;;5036315;28;20440;-81
2021/08/02 06:18:46;;;;;;;0.50;0.30;;;15.60;99.90;;;;;;5034654;28;20819;-83
2021/08/02 06:21:13;;;;;;;0.50;0.30;;;15.80;99.90;;;;;;5034322;28;20435;-82
2021/08/02 06:23:41;;;;;;;0.50;0.40;;;15.90;99.90;;;;;;5034740;28;20466;-82
2021/08/02 06:26:08;;;;;;;0.50;0.30;;;16.00;99.90;;;;;;5034345;28;20507;-82
2021/08/02 06:28:35;;;;;;;0.50;0.40;;;16.00;99.90;;;;;;5034788;28;20456;-83
2021/08/02 06:31:02;;;;;;;0.50;0.30;;;16.10;99.90;;;;;;5036349;28;20445;-83
2021/08/02 06:33:29;;;;;;;0.50;0.30;;;16.20;99.90;;;;;;5034554;28;20482;-81
2021/08/02 06:35:56;;;;;;;0.50;0.30;;;16.20;99.90;;;;;;5034072;28;20443;-82
2021/08/02 06:38:22;;;;;;;0.50;0.30;;;16.20;99.90;;;;;;5034956;28;20448;-81
2021/08/02 06:40:51;;;;;;;0.50;0.30;;;16.30;99.90;;;;;;5036230;28;20438;-83
2021/08/02 06:43:17;;;;;;;0.50;0.30;;;16.30;99.90;;;;;;5034861;28;20458;-83
2021/08/02 06:45:44;;;;;;;0.50;0.30;;;16.40;99.90;;;;;;5034641;28;20478;-83
2021/08/02 06:48:11;;;;;;;0.50;0.30;;;16.60;99.90;;;;;;5037106;28;20487;-83
2021/08/02 06:50:37;;;;;;;0.50;0.30;;;16.70;99.90;;;;;;5040324;28;20465;-82
2021/08/02 06:53:04;;;;;;;0.50;0.30;;;16.80;99.90;;;;;;5040483;28;20460;-83
2021/08/02 06:55:31;;;;;;;0.53;0.47;;;16.90;99.90;;;;;;5041575;28;20450;-83
2021/08/02 06:57:59;;;;;;;0.50;0.30;;;16.90;99.90;;;;;;5040811;28;20444;-83
2021/08/02 07:00:26;;;;;;;0.50;0.40;;;16.70;99.90;;;;;;5040448;28;20442;-80
2021/08/02 07:02:53;;;;;;;0.50;0.30;;;16.80;99.90;;;;;;5041619;28;20476;-82
2021/08/02 07:05:21;;;;;;;0.50;0.30;;;16.90;99.90;;;;;;5040356;28;20454;-82
2021/08/02 07:07:48;;;;;;;0.50;0.30;;;17.10;99.90;;;;;;5041832;28;20457;-84
2021/08/02 07:10:14;;;;;;;0.50;0.50;;;17.10;99.90;;;;;;5041167;28;20440;-80
2021/08/02 07:12:41;;;;;;;0.50;0.30;;;17.20;99.90;;;;;;5040639;28;20465;-83
2021/08/02 07:15:10;;;;;;;0.50;0.30;;;17.10;99.90;;;;;;5041226;28;20445;-82
2021/08/02 07:17:37;;;;;;;0.50;0.30;;;17.10;99.90;;;;;;5040849;28;20434;-83
2021/08/02 07:20:04;;;;;;;0.50;0.30;;;17.00;99.90;;;;;;5040767;28;20952;-83
2021/08/02 07:22:31;;;;;;;0.50;0.43;;;17.00;99.90;;;;;;5041016;28;20446;-82
2021/08/02 07:24:58;;;;;;;0.50;0.40;;;17.10;99.90;;;;;;5041160;28;20444;-82
2021/08/02 07:27:25;;;;;;;0.50;0.30;;;17.20;99.90;;;;;;5041253;28;20477;-82
2021/08/02 07:29:51;;;;;;;0.50;0.40;;;17.20;99.90;;;;;;5040772;28;20467;-81
2021/08/02 07:32:19;;;;;;;0.50;0.40;;;17.20;99.90;;;;;;5040668;28;20445;-82
2021/08/02 07:34:46;;;;;;;0.50;0.30;;;17.20;99.90;;;;;;5041438;28;20449;-81
2021/08/02 07:37:13;;;;;;;0.50;0.30;;;17.10;99.90;;;;;;5041197;28;20438;-82
2021/08/02 07:39:40;;;;;;;0.50;0.30;;;17.10;99.90;;;;;;5040442;28;20453;-82
2021/08/02 07:42:07;;;;;;;0.50;0.30;;;17.00;99.90;;;;;;5040051;28;20438;-82
2021/08/02 07:44:34;;;;;;;0.50;0.30;;;17.00;99.90;;;;;;5040385;28;20458;-84
2021/08/02 07:47:01;;;;;;;0.50;0.30;;;17.00;99.90;;;;;;5040752;28;20486;-81
2021/08/02 07:49:29;;;;;;;0.50;0.30;;;17.10;99.90;;;;;;5040223;28;20514;-82
2021/08/02 07:51:56;;;;;;;0.50;0.30;;;17.20;99.90;;;;;;5040971;28;20452;-82
2021/08/02 07:54:22;;;;;;;0.50;0.30;;;17.30;99.90;;;;;;5040424;28;20465;-83
2021/08/02 07:56:49;;;;;;;0.50;0.30;;;17.30;99.90;;;;;;5041162;28;20430;-82
2021/08/02 07:59:16;;;;;;;0.50;0.40;;;17.40;99.90;;;;;;5038675;28;20438;-82
2021/08/02 08:01:42;;;;;;;0.50;0.30;;;17.50;99.90;;;;;;5037102;28;20446;-82
2021/08/02 08:04:09;;;;;;;0.50;0.40;;;17.60;99.90;;;;;;5037216;28;20465;-82
2021/08/02 08:06:37;;;;;;;0.50;0.30;;;17.80;99.90;;;;;;5037031;28;20470;-83
2021/08/02 08:09:04;;;;;;;0.50;0.30;;;17.90;99.90;;;;;;5038089;28;20452;-83
2021/08/02 08:11:31;;;;;;;0.50;0.30;;;18.10;99.90;;;;;;5036995;28;20442;-81
2021/08/02 08:13:57;;;;;;;0.50;0.30;;;18.20;99.90;;;;;;5041731;28;20473;-81
2021/08/02 08:16:24;;;;;;;0.50;0.30;;;18.30;99.90;;;;;;5041975;28;20443;-81
2021/08/02 08:18:51;;;;;;;0.50;0.33;;;18.40;99.90;;;;;;5042337;28;20803;-81
2021/08/02 08:21:18;;;;;;;0.50;0.30;;;18.40;99.90;;;;;;5041257;28;20438;-82
2021/08/02 08:23:46;;;;;;;0.50;0.30;;;18.30;99.90;;;;;;5042307;28;20462;-81
2021/08/02 08:26:12;;;;;;;0.50;0.50;;;18.30;99.90;;;;;;5041134;28;20474;-81
2021/08/02 08:28:39;;;;;;;0.87;0.87;;;18.30;99.90;;;;;;5042449;28;20457;-82
2021/08/02 08:31:06;;;;;;;0.50;0.30;;;18.30;99.90;;;;;;5042700;28;20445;-82
2021/08/02 08:33:33;;;;;;;0.50;0.30;;;18.40;99.90;;;;;;5042374;28;20466;-81
2021/08/02 08:35:59;;;;;;;0.50;0.30;;;18.50;99.90;;;;;;5042834;28;20801;-81
2021/08/02 08:38:26;;;;;;;0.50;0.40;;;18.50;99.90;;;;;;5042437;28;20443;-80
2021/08/02 08:40:54;;;;;;;0.50;0.30;;;18.60;99.90;;;;;;5042562;28;20454;-81
2021/08/02 08:43:21;;;;;;;0.50;0.30;;;18.80;99.90;;;;;;5042914;28;20474;-81
2021/08/02 08:45:48;;;;;;;0.50;0.30;;;18.80;99.90;;;;;;5041186;28;20442;-80
2021/08/02 08:48:15;;;;;;;0.50;0.30;;;18.90;99.90;;;;;;5041738;28;20449;-81
2021/08/02 08:50:43;;;;;;;0.50;0.40;;;19.20;99.90;;;;;;5039929;28;20458;-81
2021/08/02 08:53:12;;;;;;;0.50;0.30;;;19.50;99.90;;;;;;5040406;28;20462;-82
2021/08/02 08:55:42;;;;;;;0.50;0.30;;;19.70;99.90;;;;;;5040884;28;20442;-81
2021/08/02 08:58:10;;;;;;;0.50;0.30;;;19.90;99.90;;;;;;5040029;28;20449;-82
2021/08/02 09:00:37;;;;;;;0.50;0.30;;;20.20;99.90;;;;;;5040177;28;20447;-82
2021/08/02 09:03:10;;;;;;;0.50;0.30;;;20.70;99.90;;;;;;5041259;28;20467;-81
2021/08/02 09:05:38;;;;;;;0.50;0.40;;;21.10;99.90;;;;;;5040435;28;20455;-82
2021/08/02 09:08:05;;;;;;;0.50;0.30;;;21.20;99.90;;;;;;5039464;28;20485;-80
2021/08/02 09:10:33;;;;;;;0.50;0.30;;;21.10;99.90;;;;;;5039594;28;20448;-82
2021/08/02 09:13:01;;;;;;;0.50;0.30;;;21.10;99.90;;;;;;5039978;28;20459;-81
2021/08/02 09:15:37;;;;;;;0.50;0.30;;;21.10;99.90;;;;;;5040035;28;20447;-81
2021/08/02 09:18:06;;;;;;;0.50;0.30;;;21.10;99.90;;;;;;5039842;28;20442;-81
2021/08/02 09:20:34;;;;;;;0.50;0.30;;;21.10;99.90;;;;;;5039259;28;20442;-81
2021/08/02 09:23:09;;;;;;;0.50;0.40;;;21.00;99.90;;;;;;5039630;28;20840;-80
2021/08/02 09:25:45;;;;;;;0.50;0.30;;;21.20;99.90;;;;;;5038852;28;20448;-81
2021/08/02 09:28:14;;;;;;;0.50;0.30;;;21.70;99.90;;;;;;5039667;28;20461;-80
2021/08/02 09:30:54;;;;;;;0.50;0.30;;;21.80;99.90;;;;;;5038916;28;20435;-82
2021/08/02 09:33:21;;;;;;;0.60;0.40;;;22.10;99.90;;;;;;5039378;28;20462;-82
2021/08/02 09:35:49;;;;;;;0.50;0.30;;;22.30;99.90;;;;;;5040013;28;20449;-81
2021/08/02 09:38:19;;;;;;;0.50;0.30;;;22.80;99.90;;;;;;5040124;28;20516;-81
2021/08/02 09:40:48;;;;;;;0.50;0.30;;;23.50;99.90;;;;;;5039576;28;20446;-81
2021/08/02 09:43:17;;;;;;;0.50;0.30;;;25.00;99.90;;;;;;5039597;28;20462;-82
2021/08/02 09:45:47;;;;;;;0.70;0.40;;;25.90;99.90;;;;;;5039665;28;20477;-81
2021/08/02 09:48:15;;;;;;;0.50;0.30;;;26.90;99.90;;;;;;5038869;28;20482;-81
2021/08/02 09:50:43;;;;;;;0.50;0.40;;;27.00;96.30;;;;;;5038762;28;20493;-81
2021/08/02 09:53:13;;;;;;;0.50;0.30;;;26.60;93.70;;;;;;5039693;28;20498;-81
2021/08/02 09:55:42;;;;;;;0.50;0.30;;;26.20;97.30;;;;;;5040845;28;20445;-81
2021/08/02 09:58:10;;;;;;;0.50;0.30;;;26.60;93.50;;;;;;5039681;28;20446;-82
2021/08/02 10:00:38;;;;;;;1.10;0.80;;;27.80;90.20;;;;;;5038387;28;20446;-81
2021/08/02 10:03:06;;;;;;;0.50;0.30;;;27.70;88.90;;;;;;5038739;28;20454;-81
2021/08/02 10:05:36;;;;;;;0.50;0.30;;;27.50;91.10;;;;;;5039018;28;20454;-81
2021/08/02 10:08:04;;;;;;;0.50;0.30;;;26.90;93.00;;;;;;5039641;28;20991;-81
2021/08/02 10:10:31;;;;;;;0.50;0.30;;;26.80;99.90;;;;;;5038366;28;20462;-82
2021/08/02 10:12:58;;;;;;;0.50;0.40;;;28.00;96.50;;;;;;5039364;28;20456;-81
2021/08/02 10:15:27;;;;;;;0.73;0.73;;;29.10;91.60;;;;;;5039175;28;20442;-80
2021/08/02 10:17:56;;;;;;;0.50;0.40;;;28.10;80.20;;;;;;5038947;28;20474;-81
2021/08/02 10:20:26;;;;;;;0.70;0.53;;;26.50;81.80;;;;;;5037712;28;20854;-81
2021/08/02 10:22:54;;;;;;;9.77;2.87;;;26.10;90.30;;;;;;5038301;28;20473;-80
2021/08/02 10:25:35;;;;;;;0.50;0.37;;;26.90;93.00;;;;;;5038550;28;20447;-78
2021/08/02 10:28:09;;;;;;;0.83;0.83;;;28.30;88.40;;;;;;5037759;28;20895;-80
2021/08/02 10:30:37;;;;;;;0.50;0.40;;;29.70;83.90;;;;;;5037528;28;20513;-81
2021/08/02 10:33:03;;;;;;;0.50;0.30;;;30.20;76.60;;;;;;5036624;28;20473;-81
2021/08/02 10:35:37;;;;;;;0.50;0.40;;;30.00;73.90;;;;;;5040928;28;20438;-80
2021/08/02 10:38:06;;;;;;;0.50;0.40;;;29.10;72.30;;;;;;5037318;28;20520;-82
2021/08/02 10:40:44;;;;;;;0.50;0.30;;;28.90;79.10;;;;;;5037354;28;20612;-81
2021/08/02 10:43:11;;;;;;;0.60;0.50;;;29.10;77.80;;;;;;5036109;28;20467;-81
2021/08/02 10:45:39;;;;;;;0.50;0.30;;;29.00;80.60;;;;;;5036605;28;20495;-79
2021/08/02 10:48:07;;;;;;;0.50;0.30;;;29.20;82.00;;;;;;5036140;28;20480;-81
2021/08/02 10:50:41;;;;;;;0.50;0.30;;;30.10;75.40;;;;;;5037045;28;20440;-82
2021/08/02 10:53:14;;;;;;;0.50;0.30;;;29.80;66.30;;;;;;5035742;28;20461;-81
2021/08/02 10:55:45;;;;;;;0.50;0.30;;;29.70;74.60;;;;;;5035695;28;20473;-81
2021/08/02 10:58:11;;;;;;;0.50;0.30;;;29.20;73.90;;;;;;5037806;28;20438;-81
2021/08/02 11:00:38;;;;;;;0.50;0.30;;;28.30;68.50;;;;;;5037888;28;20447;-78
2021/08/02 11:03:07;;;;;;;0.50;0.30;;;27.30;70.90;;;;;;5036114;28;20815;-80
2021/08/02 11:05:36;;;;;;;0.50;0.30;;;26.60;74.90;;;;;;5036419;28;20457;-81
2021/08/02 11:08:04;;;;;;;0.50;0.30;;;26.20;72.20;;;;;;5036300;28;20477;-80
2021/08/02 11:10:31;;;;;;;0.50;0.30;;;25.60;75.00;;;;;;5036129;28;20478;-80
2021/08/02 11:12:58;;;;;;;0.50;0.30;;;25.40;79.40;;;;;;5035647;28;20473;-81
2021/08/02 11:15:25;;;;;;;0.50;0.50;;;25.30;83.70;;;;;;5036155;28;20441;-79
2021/08/02 11:17:53;;;;;;;0.50;0.40;;;25.30;81.90;;;;;;5036278;28;20900;-81
2021/08/02 11:20:20;;;;;;;0.80;0.60;;;25.40;84.40;;;;;;5035659;28;20434;-80
2021/08/02 11:22:52;;;;;;;0.50;0.30;;;25.60;83.70;;;;;;5035835;28;20485;-80
2021/08/02 11:25:24;;;;;;;0.50;0.40;;;25.20;82.50;;;;;;5036360;28;20439;-80
2021/08/02 11:27:52;;;;;;;0.50;0.30;;;24.90;82.10;;;;;;5035491;28;20470;-81
2021/08/02 11:30:19;;;;;;;0.50;0.30;;;24.80;88.10;;;;;;5035293;28;20474;-80
2021/08/02 11:32:46;;;;;;;0.50;0.30;;;25.40;99.90;;;;;;5034702;28;20557;-80
2021/08/02 11:35:13;;;;;;;1.00;0.70;;;25.70;93.60;;;;;;5038037;28;20440;-80
2021/08/02 11:37:40;;;;;;;0.63;0.63;;;25.40;86.10;;;;;;5041231;28;20435;-81
2021/08/02 11:40:09;;;;;;;0.50;0.30;;;26.10;89.80;;;;;;5045368;28;20438;-80
2021/08/02 11:42:37;;;;;;;0.50;0.30;;;26.60;80.90;;;;;;5040549;28;20462;-81
2021/08/02 11:45:06;;;;;;;0.50;0.30;;;26.80;82.10;;;;;;5038919;28;20534;-81
2021/08/02 11:47:37;;;;;;;0.50;0.30;;;27.00;77.30;;;;;;5038970;28;20487;-80
2021/08/02 11:50:05;;;;;;;0.87;0.70;;;27.60;84.60;;;;;;5038881;28;20445;-81
2021/08/02 11:52:32;;;;;;;0.50;0.30;;;27.80;79.80;;;;;;5038922;28;20928;-80
2021/08/02 11:55:00;;;;;;;0.60;0.50;;;27.20;75.70;;;;;;5038892;28;20439;-81
2021/08/02 11:57:28;;;;;;;0.50;0.40;;;26.80;75.70;;;;;;5038841;28;21002;-81
2021/08/02 11:59:56;;;;;;;0.50;0.40;;;26.60;77.20;;;;;;5041339;28;20439;-79
2021/08/02 12:02:34;;;;;;;0.50;0.30;;;26.50;76.60;;;;;;5039246;28;20955;-81
2021/08/02 12:05:01;;;;;;;0.50;0.33;;;25.90;80.60;;;;;;5039569;28;20445;-78
2021/08/02 12:07:31;;;;;;;0.50;0.30;;;26.50;79.70;;;;;;5039298;28;20474;-80
2021/08/02 12:10:08;;;;;;;0.57;0.50;;;26.90;79.00;;;;;;5038781;28;20822;-79
2021/08/02 12:12:37;;;;;;;0.50;0.30;;;27.20;76.70;;;;;;5039119;28;20792;-81
2021/08/02 12:15:05;;;;;;;0.50;0.30;;;27.00;77.90;;;;;;5039152;28;20840;-80
2021/08/02 12:17:33;;;;;;;0.50;0.30;;;27.90;80.00;;;;;;5039383;28;20465;-80
2021/08/02 12:20:00;;;;;;;0.50;0.30;;;28.20;77.10;;;;;;5039122;28;20504;-81
2021/08/02 12:22:37;;;;;;;0.50;0.30;;;28.40;80.20;;;;;;5038422;28;20808;-80
2021/08/02 12:25:07;;;;;;;0.50;0.30;;;28.20;74.50;;;;;;5037965;28;20423;-81
2021/08/02 12:27:35;;;;;;;0.50;0.30;;;28.20;76.10;;;;;;5038103;28;20895;-79
2021/08/02 12:30:07;;;;;;;0.50;0.30;;;27.60;75.10;;;;;;5039050;28;20445;-83
2021/08/02 12:32:41;;;;;;;1.97;0.80;;;27.70;77.60;;;;;;5038246;28;20446;-81
2021/08/02 12:35:11;;;;;;;0.50;0.50;;;27.40;74.30;;;;;;5039308;28;20468;-82
2021/08/02 12:37:39;;;;;;;0.50;0.30;;;26.90;76.00;;;;;;5039170;28;20442;-81
2021/08/02 12:40:09;;;;;;;0.50;0.30;;;26.70;79.50;;;;;;5038888;28;20450;-79
2021/08/02 12:42:36;;;;;;;1.27;1.17;;;26.10;78.70;;;;;;5040906;28;20466;-79
2021/08/02 12:45:06;;;;;;;0.97;0.80;;;25.50;80.50;;;;;;5040048;28;20450;-79
2021/08/02 12:47:33;;;;;;;0.50;0.30;;;25.10;81.90;;;;;;5039866;28;20849;-82
2021/08/02 12:49:59;;;;;;;0.50;0.30;;;24.30;84.90;;;;;;5042259;28;20476;-83
2021/08/02 12:52:28;;;;;;;0.50;0.43;;;24.40;91.60;;;;;;5039655;28;20446;-79
2021/08/02 12:54:56;;;;;;;0.50;0.30;;;24.10;92.50;;;;;;5040888;28;20434;-80
2021/08/02 12:57:26;;;;;;;0.50;0.30;;;24.60;93.30;;;;;;5041188;28;21013;-80